KPIE/PIE METAR and TAF weather

Enter ICAO airport designator
Station Type Date Time Source
KPIE METAR 2019/02/16 06:53 UTC NOAA

KPIE 160653Z 19005KT 10SM CLR 15/14 A2991 RMK AO2 SLP126 T01500139


Station Type Date Time Source
KPIE Decoded METAR 2019/02/16 06:53 UTC NOAA

ST PETERSBURG/CLEARWATER, FL, United States (KPIE) 27-55N 82-41W 4M
Feb 16, 2019 - 01:53 AM EST / 2019.02.16 0653 UTC
Wind: from the S (190 degrees) at 6 MPH (5 KT):0
Visibility: 10 mile(s):0
Sky conditions: clear
Temperature: 59.0 F (15.0 C)
Dew Point: 57.0 F (13.9 C)
Relative Humidity: 93%
Pressure (altimeter): 29.91 in. Hg (1012 hPa)
ob: KPIE 160653Z 19005KT 10SM CLR 15/14 A2991 RMK AO2 SLP126 T01500139
cycle: 7

Station Type Date Time Source
KPIE TAF 2019/02/16 06:22 UTC NOAA

TAF KPIE 160520Z 1606/1706 VRB04KT P6SM BKN250
FM161000 VRB03KT 4SM BR FEW008 SCT020
FM161400 22012KT P6SM SCT025 BKN250
FM170200 VRB04KT P6SM BKN250


Example: see airport list